createdAt,value
2023-05-25T00:01:03.610Z,18.40
2023-05-25T00:03:31.996Z,18.40
2023-05-25T00:06:03.349Z,18.40
2023-05-25T00:08:30.672Z,18.40
2023-05-25T00:10:57.717Z,18.40
2023-05-25T00:13:24.804Z,18.50
2023-05-25T00:15:51.898Z,18.50
2023-05-25T00:18:19.000Z,18.50
2023-05-25T00:20:47.577Z,18.50
2023-05-25T00:23:14.836Z,18.50
2023-05-25T00:25:42.007Z,18.50
2023-05-25T00:28:11.168Z,18.50
2023-05-25T00:30:38.149Z,18.50
2023-05-25T00:33:05.391Z,18.50
2023-05-25T00:35:32.300Z,18.50
2023-05-25T00:37:59.229Z,18.50
2023-05-25T00:40:26.203Z,18.50
2023-05-25T00:42:53.598Z,18.50
2023-05-25T00:45:20.541Z,18.50
2023-05-25T00:47:52.137Z,18.50
2023-05-25T00:50:30.529Z,18.50
2023-05-25T00:52:57.693Z,18.50
2023-05-25T00:55:30.119Z,18.50
2023-05-25T00:58:00.589Z,18.40
2023-05-25T01:00:30.722Z,18.40
2023-05-25T01:03:00.003Z,18.40
2023-05-25T01:05:29.442Z,18.40
2023-05-25T01:08:03.579Z,18.30
2023-05-25T01:10:33.141Z,18.30
2023-05-25T01:13:02.803Z,18.20
2023-05-25T01:15:30.921Z,18.20
2023-05-25T01:17:59.595Z,18.10
2023-05-25T01:20:30.700Z,18.00
2023-05-25T01:23:15.427Z,17.90
2023-05-25T01:25:51.621Z,17.80
2023-05-25T01:28:24.661Z,17.80
2023-05-25T01:30:52.673Z,17.80
2023-05-25T01:33:20.121Z,17.60
2023-05-25T01:35:47.705Z,17.50
2023-05-25T01:38:14.721Z,17.50
2023-05-25T01:40:41.664Z,17.50
2023-05-25T01:43:08.718Z,17.50
2023-05-25T01:45:36.843Z,17.50
2023-05-25T01:48:20.485Z,17.50
2023-05-25T01:51:13.375Z,17.50
2023-05-25T01:53:48.930Z,17.40
2023-05-25T01:56:17.328Z,17.40
2023-05-25T01:58:45.790Z,17.30
2023-05-25T02:01:15.701Z,17.30
2023-05-25T02:03:44.970Z,17.30
2023-05-25T02:06:12.276Z,17.20
2023-05-25T02:08:39.248Z,17.20
2023-05-25T02:11:06.358Z,17.20
2023-05-25T02:13:33.244Z,17.10
2023-05-25T02:16:00.294Z,17.10
2023-05-25T02:18:27.895Z,17.20
2023-05-25T02:20:55.001Z,17.20
2023-05-25T02:23:21.949Z,17.20
2023-05-25T02:25:48.899Z,17.20
2023-05-25T02:28:16.114Z,17.20
2023-05-25T02:30:43.057Z,17.20
2023-05-25T02:33:09.954Z,17.20
2023-05-25T02:35:37.123Z,17.30
2023-05-25T02:38:04.143Z,17.30
2023-05-25T02:40:31.110Z,17.30
2023-05-25T02:42:58.102Z,17.30
2023-05-25T02:45:25.026Z,17.20
2023-05-25T02:47:51.964Z,17.20
2023-05-25T02:50:18.970Z,17.20
2023-05-25T02:52:45.887Z,17.10
2023-05-25T02:55:15.628Z,17.10
2023-05-25T02:57:42.540Z,17.00
2023-05-25T03:00:12.355Z,17.00
2023-05-25T03:02:39.594Z,17.00
2023-05-25T03:05:07.639Z,16.90
2023-05-25T03:07:34.867Z,16.80
2023-05-25T03:10:01.807Z,16.70
2023-05-25T03:12:28.741Z,16.60
2023-05-25T03:14:55.833Z,16.70
2023-05-25T03:17:22.823Z,16.70
2023-05-25T03:19:49.772Z,16.80
2023-05-25T03:22:16.701Z,16.80
2023-05-25T03:24:43.654Z,16.90
2023-05-25T03:27:10.631Z,16.90
2023-05-25T03:29:37.538Z,17.00
2023-05-25T03:32:04.759Z,17.00
2023-05-25T03:34:34.655Z,17.10
2023-05-25T03:37:01.828Z,17.20
2023-05-25T03:39:28.693Z,17.30
2023-05-25T03:41:56.142Z,17.30
2023-05-25T03:44:23.048Z,17.30
2023-05-25T03:46:50.091Z,17.30
2023-05-25T03:49:17.023Z,17.20
2023-05-25T03:51:44.024Z,17.30
2023-05-25T03:54:11.191Z,17.40
2023-05-25T03:56:38.105Z,17.60
2023-05-25T03:59:05.086Z,17.80
2023-05-25T04:01:31.996Z,17.80
2023-05-25T04:03:59.023Z,18.30
2023-05-25T04:06:26.022Z,18.40
2023-05-25T04:08:53.402Z,18.30
2023-05-25T04:11:21.178Z,17.90
2023-05-25T04:13:48.138Z,17.70
2023-05-25T04:16:15.117Z,17.80
2023-05-25T04:18:42.113Z,17.90
2023-05-25T04:21:08.979Z,18.10
2023-05-25T04:23:35.878Z,18.20
2023-05-25T04:26:03.486Z,18.60
2023-05-25T04:28:30.816Z,19.10
2023-05-25T04:30:57.887Z,19.50
2023-05-25T04:33:24.930Z,20.00
2023-05-25T04:35:51.859Z,20.30
2023-05-25T04:38:18.801Z,20.60
2023-05-25T04:40:48.966Z,20.90
2023-05-25T04:43:18.298Z,21.10
2023-05-25T04:48:13.684Z,21.40
2023-05-25T04:50:40.726Z,21.60
2023-05-25T04:53:07.665Z,21.80
2023-05-25T04:55:34.601Z,22.10
2023-05-25T04:58:01.709Z,22.30
2023-05-25T05:00:28.801Z,22.50
2023-05-25T05:03:01.877Z,22.70
2023-05-25T05:05:28.994Z,22.80
2023-05-25T05:07:55.901Z,22.90
2023-05-25T05:10:22.867Z,23.20
2023-05-25T05:12:49.798Z,23.50
2023-05-25T05:15:17.007Z,23.60
2023-05-25T05:17:43.978Z,23.70
2023-05-25T05:20:11.297Z,23.90
2023-05-25T05:22:38.816Z,24.20
2023-05-25T05:25:07.349Z,24.60
2023-05-25T05:27:34.664Z,24.80
2023-05-25T05:30:01.840Z,25.00
2023-05-25T05:32:28.780Z,25.20
2023-05-25T05:34:55.844Z,25.10
2023-05-25T05:37:22.858Z,25.20
2023-05-25T05:39:52.429Z,25.40
2023-05-25T05:42:19.495Z,25.70
2023-05-25T05:44:46.440Z,26.00
2023-05-25T05:47:13.487Z,26.20
2023-05-25T05:49:40.856Z,26.30
2023-05-25T05:52:10.348Z,26.70
2023-05-25T05:54:37.268Z,26.90
2023-05-25T05:57:04.304Z,27.00
2023-05-25T05:59:31.199Z,26.90
2023-05-25T06:01:58.198Z,27.00
2023-05-25T06:04:28.794Z,27.10
2023-05-25T06:06:56.197Z,27.10
2023-05-25T06:09:23.122Z,27.00
2023-05-25T06:11:50.044Z,27.10
2023-05-25T06:14:17.015Z,27.40
2023-05-25T06:16:44.251Z,27.40
2023-05-25T06:19:11.598Z,27.60
2023-05-25T06:21:38.478Z,27.80
2023-05-25T06:24:06.259Z,28.20
2023-05-25T06:26:33.171Z,28.10
2023-05-25T06:29:00.300Z,27.70
2023-05-25T06:31:27.272Z,27.60
2023-05-25T06:33:54.211Z,27.40
2023-05-25T06:36:21.891Z,27.60
2023-05-25T06:38:49.084Z,28.10
2023-05-25T06:41:16.134Z,28.50
2023-05-25T06:43:43.071Z,28.50
2023-05-25T06:46:10.748Z,28.30
2023-05-25T06:48:39.702Z,28.50
2023-05-25T06:51:06.748Z,28.50
2023-05-25T06:53:33.648Z,28.60
2023-05-25T06:56:00.884Z,28.50
2023-05-25T06:58:27.856Z,28.10
2023-05-25T07:00:54.788Z,27.60
2023-05-25T07:03:22.099Z,27.10
2023-05-25T07:05:49.473Z,27.70
2023-05-25T07:08:16.490Z,28.00
2023-05-25T07:10:43.423Z,28.30
2023-05-25T07:13:11.114Z,28.80
2023-05-25T07:15:38.067Z,29.00
2023-05-25T07:18:05.160Z,29.10
2023-05-25T07:20:34.390Z,29.60
2023-05-25T07:23:01.489Z,29.60
2023-05-25T07:25:28.449Z,29.20
2023-05-25T07:27:55.686Z,29.20
2023-05-25T07:30:22.663Z,28.70
2023-05-25T07:32:49.678Z,27.80
2023-05-25T07:35:16.621Z,27.60
2023-05-25T07:37:43.571Z,27.80
2023-05-25T07:40:10.948Z,27.60
2023-05-25T07:42:37.853Z,27.40
2023-05-25T07:45:05.229Z,27.20
2023-05-25T07:47:32.259Z,27.30
2023-05-25T07:49:59.280Z,27.20
2023-05-25T07:52:26.303Z,27.60
2023-05-25T07:54:53.259Z,28.30
2023-05-25T07:57:20.280Z,28.20
2023-05-25T07:59:47.270Z,28.10
2023-05-25T08:02:14.226Z,27.70
2023-05-25T08:04:41.323Z,27.50
2023-05-25T08:07:08.565Z,27.50
2023-05-25T08:09:35.585Z,27.40
2023-05-25T08:12:24.214Z,27.30
2023-05-25T08:14:49.535Z,27.40
2023-05-25T08:17:16.620Z,27.40
2023-05-25T08:19:43.599Z,27.40
2023-05-25T08:22:11.229Z,26.90
2023-05-25T08:24:38.128Z,27.30
2023-05-25T08:27:05.373Z,27.30
2023-05-25T08:29:32.322Z,27.60
2023-05-25T08:31:59.281Z,28.20
2023-05-25T08:34:26.920Z,28.30
2023-05-25T08:37:00.130Z,28.30
2023-05-25T08:39:27.571Z,28.50
2023-05-25T08:41:54.646Z,28.60
2023-05-25T08:44:22.320Z,28.80
2023-05-25T08:46:50.415Z,28.60
2023-05-25T08:49:17.712Z,28.30
2023-05-25T08:51:54.991Z,28.30
2023-05-25T08:54:30.104Z,28.10
2023-05-25T08:57:02.653Z,27.80
2023-05-25T08:59:38.132Z,27.80
2023-05-25T09:02:26.377Z,28.10
2023-05-25T09:04:54.034Z,28.50
2023-05-25T09:07:21.483Z,28.80
2023-05-25T09:09:48.824Z,28.50
2023-05-25T09:12:18.467Z,28.60
2023-05-25T09:14:48.279Z,28.80
2023-05-25T09:17:16.863Z,29.20
2023-05-25T09:19:44.271Z,29.00
2023-05-25T09:22:16.093Z,28.60
2023-05-25T09:24:44.690Z,28.20
2023-05-25T09:27:13.526Z,28.50
2023-05-25T09:29:40.611Z,28.80
2023-05-25T09:32:08.112Z,28.70
2023-05-25T09:34:35.200Z,28.60
2023-05-25T09:37:15.411Z,28.30
2023-05-25T09:39:43.581Z,27.80
2023-05-25T09:42:11.739Z,27.40
2023-05-25T09:44:39.852Z,27.10
2023-05-25T09:47:07.209Z,27.50
2023-05-25T09:49:34.206Z,27.70
2023-05-25T09:52:01.647Z,27.70
2023-05-25T09:54:29.484Z,27.30
2023-05-25T09:56:56.542Z,26.90
2023-05-25T09:59:23.741Z,26.80
2023-05-25T10:01:54.017Z,27.10
2023-05-25T10:04:21.305Z,27.50
2023-05-25T10:06:52.063Z,27.80
2023-05-25T10:09:20.325Z,27.70
2023-05-25T10:11:50.701Z,27.50
2023-05-25T10:14:28.033Z,27.50
2023-05-25T10:16:59.361Z,27.20
2023-05-25T10:19:41.499Z,26.90
2023-05-25T10:22:21.979Z,26.70
2023-05-25T10:24:59.760Z,26.70
2023-05-25T10:27:33.124Z,26.70
2023-05-25T10:30:01.942Z,26.60
2023-05-25T10:32:30.698Z,26.50
2023-05-25T10:34:58.348Z,26.40
2023-05-25T10:37:27.747Z,26.40
2023-05-25T10:39:57.524Z,26.30
2023-05-25T10:42:25.926Z,26.20
2023-05-25T10:44:53.329Z,26.20
2023-05-25T10:47:21.426Z,26.30
2023-05-25T10:49:55.851Z,26.30
2023-05-25T10:52:26.656Z,26.30
2023-05-25T10:55:03.989Z,26.50
2023-05-25T10:57:31.150Z,26.50
2023-05-25T11:00:08.975Z,26.50
2023-05-25T11:02:56.468Z,26.40
2023-05-25T11:05:26.414Z,26.30
2023-05-25T11:08:08.693Z,26.40
2023-05-25T11:10:50.789Z,26.40
2023-05-25T11:13:39.720Z,26.50
2023-05-25T11:16:17.798Z,26.50
2023-05-25T11:18:51.984Z,26.40
2023-05-25T11:21:27.676Z,26.40
2023-05-25T11:24:10.770Z,26.50
2023-05-25T11:26:37.859Z,26.60
2023-05-25T11:29:16.298Z,26.80
2023-05-25T11:31:43.982Z,27.00
2023-05-25T11:34:12.468Z,27.00
2023-05-25T11:36:39.755Z,27.10
2023-05-25T11:39:14.284Z,26.90
2023-05-25T11:41:55.529Z,26.70
2023-05-25T11:44:31.366Z,26.60
2023-05-25T11:47:02.111Z,26.40
2023-05-25T11:49:29.307Z,26.40
2023-05-25T11:51:57.581Z,26.50
2023-05-25T11:54:26.389Z,26.50
2023-05-25T11:56:56.757Z,26.60
2023-05-25T11:59:26.852Z,26.70
2023-05-25T12:02:04.941Z,26.80
2023-05-25T12:04:33.602Z,26.80
2023-05-25T12:07:04.364Z,26.80
2023-05-25T12:09:31.503Z,26.70
2023-05-25T12:11:58.525Z,26.80
2023-05-25T12:14:26.075Z,26.70
2023-05-25T12:16:53.444Z,26.60
2023-05-25T12:19:21.591Z,26.60
2023-05-25T12:21:51.423Z,26.60
2023-05-25T12:24:19.090Z,26.60
2023-05-25T12:26:58.910Z,26.60
2023-05-25T12:29:26.400Z,26.60
2023-05-25T12:31:53.729Z,26.50
2023-05-25T12:34:21.601Z,26.40
2023-05-25T12:36:53.250Z,26.30
2023-05-25T12:39:32.097Z,26.20
2023-05-25T12:42:02.813Z,26.10
2023-05-25T12:44:34.740Z,26.10
2023-05-25T12:47:15.050Z,26.10
2023-05-25T12:49:43.949Z,26.20
2023-05-25T12:52:12.069Z,26.20
2023-05-25T12:54:43.781Z,26.30
2023-05-25T12:57:17.901Z,26.50
2023-05-25T12:59:47.130Z,26.60
2023-05-25T13:02:15.018Z,26.70
2023-05-25T13:04:42.472Z,26.70
2023-05-25T13:07:10.265Z,26.80
2023-05-25T13:09:38.135Z,26.90
2023-05-25T13:12:05.364Z,26.80
2023-05-25T13:14:32.427Z,26.70
2023-05-25T13:16:59.373Z,26.80
2023-05-25T13:19:27.037Z,26.90
2023-05-25T13:21:55.907Z,26.90
2023-05-25T13:24:23.200Z,26.70
2023-05-25T13:26:51.182Z,26.80
2023-05-25T13:29:18.676Z,26.90
2023-05-25T13:31:46.041Z,26.80
2023-05-25T13:34:13.562Z,26.70
2023-05-25T13:36:40.722Z,26.60
2023-05-25T13:39:10.838Z,26.60
2023-05-25T13:41:37.849Z,26.60
2023-05-25T13:44:04.806Z,26.60
2023-05-25T13:46:34.994Z,26.60
2023-05-25T13:49:03.669Z,26.50
2023-05-25T13:51:31.028Z,26.40
2023-05-25T13:53:57.965Z,26.30
2023-05-25T13:56:25.030Z,26.10
2023-05-25T13:58:52.144Z,26.00
2023-05-25T14:01:19.309Z,26.00
2023-05-25T14:03:46.752Z,26.10
2023-05-25T14:06:13.776Z,26.20
2023-05-25T14:08:40.730Z,26.30
2023-05-25T14:11:07.631Z,26.40
2023-05-25T14:13:36.598Z,26.50
2023-05-25T14:16:03.983Z,26.50
2023-05-25T14:18:31.025Z,26.50
2023-05-25T14:20:58.192Z,26.40
2023-05-25T14:23:25.097Z,26.30
2023-05-25T14:25:52.135Z,26.20
2023-05-25T14:28:19.206Z,26.20
2023-05-25T14:30:46.245Z,26.20
2023-05-25T14:33:14.708Z,26.10
2023-05-25T14:35:43.074Z,26.10
2023-05-25T14:38:10.768Z,26.10
2023-05-25T14:40:37.695Z,26.10
2023-05-25T14:43:04.695Z,26.10
2023-05-25T14:45:31.671Z,26.10
2023-05-25T14:48:11.774Z,26.00
2023-05-25T14:50:44.583Z,26.00
2023-05-25T14:53:11.977Z,26.10
2023-05-25T14:55:38.979Z,26.20
2023-05-25T14:58:05.916Z,26.20
2023-05-25T15:00:32.882Z,26.30
2023-05-25T15:03:00.084Z,26.30
2023-05-25T15:05:27.128Z,26.30
2023-05-25T15:07:54.055Z,26.30
2023-05-25T15:10:20.976Z,26.30
2023-05-25T15:12:47.899Z,26.30
2023-05-25T15:15:15.363Z,26.30
2023-05-25T15:17:42.306Z,26.20
2023-05-25T15:20:09.843Z,26.20
2023-05-25T15:22:36.905Z,26.20
2023-05-25T15:25:04.700Z,26.20
2023-05-25T15:27:32.337Z,26.20
2023-05-25T15:29:59.253Z,26.20
2023-05-25T15:32:26.352Z,26.10
2023-05-25T15:34:53.241Z,26.10
2023-05-25T15:37:20.225Z,26.10
2023-05-25T15:39:47.176Z,26.10
2023-05-25T15:42:14.067Z,26.20
2023-05-25T15:44:41.247Z,26.20
2023-05-25T15:47:08.210Z,26.20
2023-05-25T15:49:37.204Z,26.30
2023-05-25T15:52:04.590Z,26.30
2023-05-25T15:54:31.512Z,26.40
2023-05-25T15:56:58.476Z,26.40
2023-05-25T15:59:25.511Z,26.40
2023-05-25T16:01:52.703Z,26.40
2023-05-25T16:04:19.773Z,26.50
2023-05-25T16:06:48.729Z,26.40
2023-05-25T16:09:16.301Z,26.40
2023-05-25T16:11:43.302Z,26.40
2023-05-25T16:14:10.229Z,26.50
2023-05-25T16:16:37.209Z,26.50
2023-05-25T16:19:04.295Z,26.60
2023-05-25T16:21:31.258Z,26.60
2023-05-25T16:23:58.257Z,26.60
2023-05-25T16:26:25.222Z,26.60
2023-05-25T16:28:52.120Z,26.60
2023-05-25T16:31:19.097Z,26.60
2023-05-25T16:33:46.311Z,26.50
2023-05-25T16:36:14.236Z,26.50
2023-05-25T16:38:41.662Z,26.50
2023-05-25T16:41:08.679Z,26.40
2023-05-25T16:43:35.760Z,26.30
2023-05-25T16:46:02.689Z,26.20
2023-05-25T16:48:32.965Z,26.20
2023-05-25T16:50:59.987Z,26.10
2023-05-25T16:53:26.957Z,26.00
2023-05-25T16:55:53.894Z,26.00
2023-05-25T16:58:20.956Z,26.00
2023-05-25T17:00:48.014Z,26.00
2023-05-25T17:03:15.037Z,26.00
2023-05-25T17:05:42.285Z,25.90
2023-05-25T17:08:09.593Z,25.90
2023-05-25T17:10:36.516Z,25.80
2023-05-25T17:13:03.430Z,25.70
2023-05-25T17:15:30.388Z,25.70
2023-05-25T17:17:57.367Z,25.60
2023-05-25T17:20:24.433Z,25.70
2023-05-25T17:22:53.033Z,25.60
2023-05-25T17:25:20.133Z,25.60
2023-05-25T17:27:47.057Z,25.50
2023-05-25T17:30:14.288Z,25.50
2023-05-25T17:32:41.754Z,25.40
2023-05-25T17:35:09.372Z,25.30
2023-05-25T17:37:36.340Z,25.30
2023-05-25T17:40:04.935Z,25.30
2023-05-25T17:42:31.922Z,25.20
2023-05-25T17:44:58.857Z,25.10
2023-05-25T17:47:26.750Z,25.00
2023-05-25T17:49:54.143Z,24.90
2023-05-25T17:52:21.113Z,24.80
2023-05-25T17:54:48.053Z,24.70
2023-05-25T17:57:14.971Z,24.70
2023-05-25T17:59:44.134Z,24.60
2023-05-25T18:02:12.674Z,24.50
2023-05-25T18:04:39.750Z,24.40
2023-05-25T18:07:06.668Z,24.40
2023-05-25T18:09:33.551Z,24.20
2023-05-25T18:12:01.172Z,24.10
2023-05-25T18:14:29.298Z,24.10
2023-05-25T18:16:56.317Z,24.00
2023-05-25T18:19:23.274Z,23.90
2023-05-25T18:21:50.160Z,23.90
2023-05-25T18:24:17.088Z,23.80
2023-05-25T18:26:44.087Z,23.70
2023-05-25T18:29:11.125Z,23.60
2023-05-25T18:31:38.149Z,23.60
2023-05-25T18:34:07.194Z,23.40
2023-05-25T18:36:34.180Z,23.30
2023-05-25T18:39:01.090Z,23.30
2023-05-25T18:41:28.076Z,23.20
2023-05-25T18:43:55.219Z,23.10
2023-05-25T18:46:22.866Z,23.00
2023-05-25T18:48:49.861Z,23.00
2023-05-25T18:51:17.354Z,22.90
2023-05-25T18:53:44.962Z,22.90
2023-05-25T18:56:12.082Z,22.80
2023-05-25T18:58:39.056Z,22.70
2023-05-25T19:01:06.078Z,22.70
2023-05-25T19:03:33.439Z,22.60
2023-05-25T19:06:00.556Z,22.60
2023-05-25T19:08:27.479Z,22.50
2023-05-25T19:10:54.388Z,22.40
2023-05-25T19:13:22.956Z,22.40
2023-05-25T19:15:50.650Z,22.30
2023-05-25T19:18:17.688Z,22.30
2023-05-25T19:20:44.844Z,22.30
2023-05-25T19:23:11.838Z,22.20
2023-05-25T19:25:38.774Z,22.20
2023-05-25T19:28:05.977Z,22.20
2023-05-25T19:30:32.962Z,22.10
2023-05-25T19:33:00.115Z,22.10
2023-05-25T19:35:27.259Z,22.00
2023-05-25T19:37:54.174Z,22.00
2023-05-25T19:40:21.134Z,22.00
2023-05-25T19:42:48.153Z,21.90
2023-05-25T19:45:15.170Z,21.90
2023-05-25T19:47:42.206Z,21.90
2023-05-25T19:50:09.929Z,21.80
2023-05-25T19:52:36.897Z,21.70
2023-05-25T19:55:04.033Z,21.70
2023-05-25T19:57:30.998Z,21.70
2023-05-25T19:59:57.972Z,21.70
2023-05-25T20:02:24.982Z,21.60
2023-05-25T20:04:51.997Z,21.60
2023-05-25T20:07:18.996Z,21.50
2023-05-25T20:09:46.239Z,21.50
2023-05-25T20:12:14.930Z,21.40
2023-05-25T20:14:42.486Z,21.40
2023-05-25T20:17:09.403Z,21.30
2023-05-25T20:19:36.356Z,21.30
2023-05-25T20:22:04.417Z,21.20
2023-05-25T20:24:33.237Z,21.20
2023-05-25T20:27:00.221Z,21.20
2023-05-25T20:29:27.572Z,21.10
2023-05-25T20:31:54.591Z,21.10
2023-05-25T20:34:21.644Z,21.10
2023-05-25T20:36:48.671Z,21.00
2023-05-25T20:39:16.182Z,21.00
2023-05-25T20:41:43.127Z,21.00
2023-05-25T20:44:10.273Z,20.90
2023-05-25T20:46:37.502Z,20.90
2023-05-25T20:49:04.481Z,20.80
2023-05-25T20:51:31.562Z,20.80
2023-05-25T20:53:58.580Z,20.70
2023-05-25T20:56:28.538Z,20.60
2023-05-25T20:58:55.559Z,20.50
2023-05-25T21:01:22.565Z,20.40
2023-05-25T21:03:49.606Z,20.30
2023-05-25T21:06:16.643Z,20.20
2023-05-25T21:08:43.690Z,20.20
2023-05-25T21:11:10.897Z,20.20
2023-05-25T21:13:37.779Z,20.10
2023-05-25T21:16:04.863Z,20.00
2023-05-25T21:18:31.784Z,19.90
2023-05-25T21:20:58.703Z,19.90
2023-05-25T21:23:25.765Z,19.90
2023-05-25T21:25:52.688Z,19.90
2023-05-25T21:28:19.611Z,19.90
2023-05-25T21:30:46.561Z,19.90
2023-05-25T21:33:13.634Z,19.80
2023-05-25T21:35:40.786Z,19.80
2023-05-25T21:38:07.715Z,19.80
2023-05-25T21:40:35.050Z,19.70
2023-05-25T21:43:02.108Z,19.60
2023-05-25T21:45:29.161Z,19.70
2023-05-25T21:47:56.199Z,19.70
2023-05-25T21:50:26.407Z,19.70
2023-05-25T21:52:53.342Z,19.60
2023-05-25T21:55:20.273Z,19.60
2023-05-25T21:57:47.191Z,19.60
2023-05-25T22:00:14.856Z,19.60
2023-05-25T22:02:42.038Z,19.50
2023-05-25T22:05:09.372Z,19.40
2023-05-25T22:07:36.449Z,19.40
2023-05-25T22:10:04.110Z,19.30
2023-05-25T22:12:31.094Z,19.30
2023-05-25T22:14:57.974Z,19.30
2023-05-25T22:17:24.917Z,19.20
2023-05-25T22:20:03.328Z,19.10
2023-05-25T22:22:34.667Z,19.00
2023-05-25T22:25:01.747Z,19.00
2023-05-25T22:27:28.707Z,19.00
2023-05-25T22:29:56.030Z,19.00
2023-05-25T22:32:23.401Z,19.00
2023-05-25T22:34:50.636Z,19.00
2023-05-25T22:37:17.758Z,19.00
2023-05-25T22:39:44.782Z,18.90
2023-05-25T22:42:11.806Z,18.90
2023-05-25T22:44:39.174Z,18.90
2023-05-25T22:47:07.050Z,18.80
2023-05-25T22:49:41.255Z,18.70
2023-05-25T22:52:11.007Z,18.60
2023-05-25T22:54:37.935Z,18.50
2023-05-25T22:57:05.771Z,18.50
2023-05-25T22:59:32.688Z,18.60
2023-05-25T23:01:59.708Z,18.60
2023-05-25T23:04:26.679Z,18.60
2023-05-25T23:06:53.750Z,18.60
2023-05-25T23:09:20.949Z,18.50
2023-05-25T23:11:47.902Z,18.40
2023-05-25T23:14:15.184Z,18.40
2023-05-25T23:16:42.244Z,18.40
2023-05-25T23:19:09.208Z,18.30
2023-05-25T23:21:36.191Z,18.30
2023-05-25T23:24:03.144Z,18.30
2023-05-25T23:26:30.208Z,18.20
2023-05-25T23:28:57.196Z,18.20
2023-05-25T23:31:24.222Z,18.20
2023-05-25T23:33:51.181Z,18.10
2023-05-25T23:36:18.131Z,18.10
2023-05-25T23:38:45.936Z,18.10
2023-05-25T23:41:12.996Z,18.10
2023-05-25T23:43:39.916Z,18.00
2023-05-25T23:46:07.389Z,17.90
2023-05-25T23:48:34.373Z,17.90
2023-05-25T23:51:01.397Z,17.90
2023-05-25T23:53:28.315Z,17.90
2023-05-25T23:55:55.273Z,17.80
2023-05-25T23:58:22.216Z,17.80
